sensor_id;sensor_type;location;lat;lon;timestamp;P1;durP1;ratioP1;P2;durP2;ratioP2
72301;SDS011;60235;52.234;5.186;2023-05-15T00:00:00;27.98;;;12.10;;
72301;SDS011;60235;52.234;5.186;2023-05-15T00:02:26;27.90;;;11.60;;
72301;SDS011;60235;52.234;5.186;2023-05-15T00:04:52;33.40;;;12.50;;
72301;SDS011;60235;52.234;5.186;2023-05-15T00:07:18;29.90;;;11.05;;
72301;SDS011;60235;52.234;5.186;2023-05-15T00:09:44;26.27;;;12.18;;
72301;SDS011;60235;52.234;5.186;2023-05-15T00:12:10;25.92;;;11.63;;
72301;SDS011;60235;52.234;5.186;2023-05-15T00:14:36;33.92;;;13.55;;
72301;SDS011;60235;52.234;5.186;2023-05-15T00:17:02;33.10;;;13.57;;
72301;SDS011;60235;52.234;5.186;2023-05-15T00:19:28;26.45;;;12.02;;
72301;SDS011;60235;52.234;5.186;2023-05-15T00:21:54;27.50;;;12.57;;
72301;SDS011;60235;52.234;5.186;2023-05-15T00:24:20;28.58;;;12.10;;
72301;SDS011;60235;52.234;5.186;2023-05-15T00:26:46;29.33;;;12.27;;
72301;SDS011;60235;52.234;5.186;2023-05-15T00:29:12;26.90;;;12.02;;
72301;SDS011;60235;52.234;5.186;2023-05-15T00:31:38;32.65;;;13.20;;
72301;SDS011;60235;52.234;5.186;2023-05-15T00:34:04;31.52;;;12.60;;
72301;SDS011;60235;52.234;5.186;2023-05-15T00:36:30;31.10;;;13.02;;
72301;SDS011;60235;52.234;5.186;2023-05-15T00:38:56;27.83;;;12.63;;
72301;SDS011;60235;52.234;5.186;2023-05-15T00:41:22;30.15;;;13.50;;
72301;SDS011;60235;52.234;5.186;2023-05-15T00:43:50;32.05;;;12.75;;
72301;SDS011;60235;52.234;5.186;2023-05-15T00:46:16;33.03;;;11.88;;
72301;SDS011;60235;52.234;5.186;2023-05-15T00:48:43;29.30;;;12.68;;
72301;SDS011;60235;52.234;5.186;2023-05-15T00:51:09;30.58;;;12.98;;
72301;SDS011;60235;52.234;5.186;2023-05-15T00:53:36;30.60;;;12.57;;
72301;SDS011;60235;52.234;5.186;2023-05-15T00:56:02;33.15;;;14.18;;
72301;SDS011;60235;52.234;5.186;2023-05-15T00:58:29;32.15;;;13.65;;
72301;SDS011;60235;52.234;5.186;2023-05-15T01:00:55;30.70;;;13.30;;
72301;SDS011;60235;52.234;5.186;2023-05-15T01:03:22;28.25;;;12.93;;
72301;SDS011;60235;52.234;5.186;2023-05-15T01:05:48;30.08;;;11.90;;
72301;SDS011;60235;52.234;5.186;2023-05-15T01:08:22;33.85;;;12.98;;
72301;SDS011;60235;52.234;5.186;2023-05-15T01:10:51;28.67;;;12.80;;
72301;SDS011;60235;52.234;5.186;2023-05-15T01:13:18;30.90;;;13.00;;
72301;SDS011;60235;52.234;5.186;2023-05-15T01:15:45;32.50;;;12.57;;
72301;SDS011;60235;52.234;5.186;2023-05-15T01:18:11;29.15;;;12.75;;
72301;SDS011;60235;52.234;5.186;2023-05-15T01:20:46;28.33;;;11.98;;
72301;SDS011;60235;52.234;5.186;2023-05-15T01:23:17;31.42;;;13.65;;
72301;SDS011;60235;52.234;5.186;2023-05-15T01:28:12;32.05;;;13.32;;
72301;SDS011;60235;52.234;5.186;2023-05-15T01:30:39;33.15;;;14.75;;
72301;SDS011;60235;52.234;5.186;2023-05-15T01:33:14;31.08;;;12.65;;
72301;SDS011;60235;52.234;5.186;2023-05-15T01:35:44;33.40;;;14.13;;
72301;SDS011;60235;52.234;5.186;2023-05-15T01:40:56;33.50;;;14.20;;
72301;SDS011;60235;52.234;5.186;2023-05-15T01:43:26;33.25;;;13.25;;
72301;SDS011;60235;52.234;5.186;2023-05-15T01:45:53;33.50;;;14.35;;
72301;SDS011;60235;52.234;5.186;2023-05-15T01:48:20;34.65;;;15.55;;
72301;SDS011;60235;52.234;5.186;2023-05-15T01:50:47;35.63;;;15.13;;
72301;SDS011;60235;52.234;5.186;2023-05-15T01:53:15;38.08;;;15.93;;
72301;SDS011;60235;52.234;5.186;2023-05-15T01:55:43;38.33;;;16.10;;
72301;SDS011;60235;52.234;5.186;2023-05-15T01:58:09;35.80;;;15.07;;
72301;SDS011;60235;52.234;5.186;2023-05-15T02:00:35;39.67;;;17.50;;
72301;SDS011;60235;52.234;5.186;2023-05-15T02:03:02;36.08;;;15.68;;
72301;SDS011;60235;52.234;5.186;2023-05-15T02:05:29;38.58;;;15.85;;
72301;SDS011;60235;52.234;5.186;2023-05-15T02:07:55;38.90;;;17.00;;
72301;SDS011;60235;52.234;5.186;2023-05-15T02:10:21;35.25;;;14.98;;
72301;SDS011;60235;52.234;5.186;2023-05-15T02:12:47;37.72;;;16.33;;
72301;SDS011;60235;52.234;5.186;2023-05-15T02:15:14;35.03;;;15.57;;
72301;SDS011;60235;52.234;5.186;2023-05-15T02:17:42;39.88;;;16.13;;
72301;SDS011;60235;52.234;5.186;2023-05-15T02:20:08;38.20;;;16.88;;
72301;SDS011;60235;52.234;5.186;2023-05-15T02:22:34;40.13;;;18.60;;
72301;SDS011;60235;52.234;5.186;2023-05-15T02:25:00;42.78;;;17.92;;
72301;SDS011;60235;52.234;5.186;2023-05-15T02:27:27;43.83;;;18.25;;
72301;SDS011;60235;52.234;5.186;2023-05-15T02:32:34;41.90;;;18.13;;
72301;SDS011;60235;52.234;5.186;2023-05-15T02:35:13;38.40;;;18.25;;
72301;SDS011;60235;52.234;5.186;2023-05-15T02:37:41;41.30;;;17.42;;
72301;SDS011;60235;52.234;5.186;2023-05-15T02:40:10;45.22;;;17.77;;
72301;SDS011;60235;52.234;5.186;2023-05-15T02:42:37;37.03;;;16.20;;
72301;SDS011;60235;52.234;5.186;2023-05-15T02:45:04;41.92;;;18.35;;
72301;SDS011;60235;52.234;5.186;2023-05-15T02:47:30;40.42;;;17.58;;
72301;SDS011;60235;52.234;5.186;2023-05-15T02:49:57;45.80;;;18.60;;
72301;SDS011;60235;52.234;5.186;2023-05-15T02:52:24;42.70;;;17.23;;
72301;SDS011;60235;52.234;5.186;2023-05-15T02:54:50;42.92;;;18.35;;
72301;SDS011;60235;52.234;5.186;2023-05-15T02:57:16;43.55;;;17.95;;
72301;SDS011;60235;52.234;5.186;2023-05-15T02:59:42;39.55;;;17.23;;
72301;SDS011;60235;52.234;5.186;2023-05-15T03:02:08;42.20;;;16.77;;
72301;SDS011;60235;52.234;5.186;2023-05-15T03:04:34;42.95;;;17.38;;
72301;SDS011;60235;52.234;5.186;2023-05-15T03:07:00;42.28;;;18.17;;
72301;SDS011;60235;52.234;5.186;2023-05-15T03:09:26;42.60;;;17.10;;
72301;SDS011;60235;52.234;5.186;2023-05-15T03:11:52;39.47;;;17.23;;
72301;SDS011;60235;52.234;5.186;2023-05-15T03:14:18;45.72;;;18.95;;
72301;SDS011;60235;52.234;5.186;2023-05-15T03:16:44;45.95;;;17.73;;
72301;SDS011;60235;52.234;5.186;2023-05-15T03:19:10;46.17;;;19.05;;
72301;SDS011;60235;52.234;5.186;2023-05-15T03:21:36;44.90;;;18.98;;
72301;SDS011;60235;52.234;5.186;2023-05-15T03:24:02;37.22;;;16.77;;
72301;SDS011;60235;52.234;5.186;2023-05-15T03:26:28;38.58;;;17.77;;
72301;SDS011;60235;52.234;5.186;2023-05-15T03:28:54;47.88;;;19.02;;
72301;SDS011;60235;52.234;5.186;2023-05-15T03:31:20;42.92;;;19.27;;
72301;SDS011;60235;52.234;5.186;2023-05-15T03:33:46;40.80;;;17.20;;
72301;SDS011;60235;52.234;5.186;2023-05-15T03:36:14;47.13;;;19.00;;
72301;SDS011;60235;52.234;5.186;2023-05-15T03:38:40;48.72;;;20.23;;
72301;SDS011;60235;52.234;5.186;2023-05-15T03:41:08;49.13;;;20.38;;
72301;SDS011;60235;52.234;5.186;2023-05-15T03:43:34;45.60;;;18.95;;
72301;SDS011;60235;52.234;5.186;2023-05-15T03:46:00;45.08;;;18.92;;
72301;SDS011;60235;52.234;5.186;2023-05-15T03:48:26;47.50;;;17.92;;
72301;SDS011;60235;52.234;5.186;2023-05-15T03:50:52;43.00;;;19.42;;
72301;SDS011;60235;52.234;5.186;2023-05-15T03:53:18;38.15;;;17.95;;
72301;SDS011;60235;52.234;5.186;2023-05-15T03:55:44;43.88;;;19.73;;
72301;SDS011;60235;52.234;5.186;2023-05-15T03:58:10;47.58;;;19.65;;
72301;SDS011;60235;52.234;5.186;2023-05-15T04:00:36;43.92;;;19.67;;
72301;SDS011;60235;52.234;5.186;2023-05-15T04:03:02;43.08;;;19.45;;
72301;SDS011;60235;52.234;5.186;2023-05-15T04:05:28;39.47;;;17.95;;
72301;SDS011;60235;52.234;5.186;2023-05-15T04:07:54;42.05;;;18.20;;
72301;SDS011;60235;52.234;5.186;2023-05-15T04:10:20;44.50;;;17.70;;
72301;SDS011;60235;52.234;5.186;2023-05-15T04:12:46;41.30;;;17.58;;
72301;SDS011;60235;52.234;5.186;2023-05-15T04:15:16;39.08;;;17.95;;
72301;SDS011;60235;52.234;5.186;2023-05-15T04:17:45;41.63;;;18.50;;
72301;SDS011;60235;52.234;5.186;2023-05-15T04:20:12;40.35;;;18.23;;
72301;SDS011;60235;52.234;5.186;2023-05-15T04:22:39;45.13;;;19.45;;
72301;SDS011;60235;52.234;5.186;2023-05-15T04:25:05;42.60;;;18.10;;
72301;SDS011;60235;52.234;5.186;2023-05-15T04:27:32;36.30;;;17.30;;
72301;SDS011;60235;52.234;5.186;2023-05-15T04:29:58;39.50;;;17.38;;
72301;SDS011;60235;52.234;5.186;2023-05-15T04:32:25;41.75;;;17.65;;
72301;SDS011;60235;52.234;5.186;2023-05-15T04:34:52;45.13;;;19.20;;
72301;SDS011;60235;52.234;5.186;2023-05-15T04:37:18;38.22;;;18.65;;
72301;SDS011;60235;52.234;5.186;2023-05-15T04:39:44;40.95;;;19.10;;
72301;SDS011;60235;52.234;5.186;2023-05-15T04:42:10;36.70;;;17.70;;
72301;SDS011;60235;52.234;5.186;2023-05-15T04:44:36;38.97;;;17.58;;
72301;SDS011;60235;52.234;5.186;2023-05-15T04:47:02;37.67;;;17.95;;
72301;SDS011;60235;52.234;5.186;2023-05-15T04:49:28;32.92;;;15.40;;
72301;SDS011;60235;52.234;5.186;2023-05-15T04:51:54;34.53;;;15.95;;
72301;SDS011;60235;52.234;5.186;2023-05-15T04:54:20;31.67;;;15.77;;
72301;SDS011;60235;52.234;5.186;2023-05-15T04:56:46;34.15;;;16.90;;
72301;SDS011;60235;52.234;5.186;2023-05-15T04:59:12;35.83;;;16.30;;
72301;SDS011;60235;52.234;5.186;2023-05-15T05:01:39;35.47;;;17.20;;
72301;SDS011;60235;52.234;5.186;2023-05-15T05:04:05;38.83;;;18.55;;
72301;SDS011;60235;52.234;5.186;2023-05-15T05:06:32;34.17;;;16.65;;
72301;SDS011;60235;52.234;5.186;2023-05-15T05:08:58;30.23;;;15.52;;
72301;SDS011;60235;52.234;5.186;2023-05-15T05:11:24;39.63;;;16.77;;
72301;SDS011;60235;52.234;5.186;2023-05-15T05:13:50;33.13;;;16.10;;
72301;SDS011;60235;52.234;5.186;2023-05-15T05:16:16;33.00;;;17.05;;
72301;SDS011;60235;52.234;5.186;2023-05-15T05:18:42;29.55;;;15.52;;
72301;SDS011;60235;52.234;5.186;2023-05-15T05:21:08;31.38;;;15.98;;
72301;SDS011;60235;52.234;5.186;2023-05-15T05:23:34;33.08;;;15.23;;
72301;SDS011;60235;52.234;5.186;2023-05-15T05:26:00;30.80;;;15.00;;
72301;SDS011;60235;52.234;5.186;2023-05-15T05:28:26;32.92;;;17.13;;
72301;SDS011;60235;52.234;5.186;2023-05-15T05:30:52;30.35;;;14.95;;
72301;SDS011;60235;52.234;5.186;2023-05-15T05:33:18;28.20;;;14.98;;
72301;SDS011;60235;52.234;5.186;2023-05-15T05:35:44;26.55;;;14.48;;
72301;SDS011;60235;52.234;5.186;2023-05-15T05:38:10;28.50;;;15.48;;
72301;SDS011;60235;52.234;5.186;2023-05-15T05:40:36;28.42;;;16.13;;
72301;SDS011;60235;52.234;5.186;2023-05-15T05:43:03;30.25;;;15.52;;
72301;SDS011;60235;52.234;5.186;2023-05-15T05:45:29;26.80;;;15.23;;
72301;SDS011;60235;52.234;5.186;2023-05-15T05:47:55;28.70;;;15.80;;
72301;SDS011;60235;52.234;5.186;2023-05-15T05:50:21;28.70;;;16.42;;
72301;SDS011;60235;52.234;5.186;2023-05-15T05:52:47;33.15;;;17.13;;
72301;SDS011;60235;52.234;5.186;2023-05-15T05:55:13;37.55;;;18.50;;
72301;SDS011;60235;52.234;5.186;2023-05-15T05:57:39;33.08;;;17.83;;
72301;SDS011;60235;52.234;5.186;2023-05-15T06:00:06;27.05;;;14.50;;
72301;SDS011;60235;52.234;5.186;2023-05-15T06:02:38;29.20;;;15.52;;
72301;SDS011;60235;52.234;5.186;2023-05-15T06:05:04;29.00;;;15.90;;
72301;SDS011;60235;52.234;5.186;2023-05-15T06:07:31;27.48;;;15.07;;
72301;SDS011;60235;52.234;5.186;2023-05-15T06:09:57;30.88;;;16.48;;
72301;SDS011;60235;52.234;5.186;2023-05-15T06:12:23;32.35;;;17.63;;
72301;SDS011;60235;52.234;5.186;2023-05-15T06:14:50;34.83;;;17.55;;
72301;SDS011;60235;52.234;5.186;2023-05-15T06:17:16;34.80;;;17.98;;
72301;SDS011;60235;52.234;5.186;2023-05-15T06:19:42;32.85;;;17.73;;
72301;SDS011;60235;52.234;5.186;2023-05-15T06:22:08;35.72;;;17.55;;
72301;SDS011;60235;52.234;5.186;2023-05-15T06:24:34;34.15;;;17.52;;
72301;SDS011;60235;52.234;5.186;2023-05-15T06:27:00;36.22;;;18.15;;
72301;SDS011;60235;52.234;5.186;2023-05-15T06:29:26;31.55;;;16.38;;
72301;SDS011;60235;52.234;5.186;2023-05-15T06:31:52;34.75;;;18.27;;
72301;SDS011;60235;52.234;5.186;2023-05-15T06:34:18;36.50;;;18.10;;
72301;SDS011;60235;52.234;5.186;2023-05-15T06:36:44;31.85;;;17.10;;
72301;SDS011;60235;52.234;5.186;2023-05-15T06:39:10;33.10;;;18.05;;
72301;SDS011;60235;52.234;5.186;2023-05-15T06:41:36;35.13;;;18.30;;
72301;SDS011;60235;52.234;5.186;2023-05-15T06:44:02;37.53;;;18.15;;
72301;SDS011;60235;52.234;5.186;2023-05-15T06:46:28;33.60;;;18.38;;
72301;SDS011;60235;52.234;5.186;2023-05-15T06:48:54;29.92;;;17.35;;
72301;SDS011;60235;52.234;5.186;2023-05-15T06:51:21;34.90;;;17.73;;
72301;SDS011;60235;52.234;5.186;2023-05-15T06:53:47;34.13;;;18.33;;
72301;SDS011;60235;52.234;5.186;2023-05-15T06:56:13;30.55;;;17.85;;
72301;SDS011;60235;52.234;5.186;2023-05-15T06:58:39;29.27;;;17.17;;
72301;SDS011;60235;52.234;5.186;2023-05-15T07:01:06;34.45;;;17.30;;
72301;SDS011;60235;52.234;5.186;2023-05-15T07:03:33;32.67;;;15.95;;
72301;SDS011;60235;52.234;5.186;2023-05-15T07:05:59;30.50;;;16.45;;
72301;SDS011;60235;52.234;5.186;2023-05-15T07:08:25;30.00;;;16.13;;
72301;SDS011;60235;52.234;5.186;2023-05-15T07:10:51;30.58;;;15.13;;
72301;SDS011;60235;52.234;5.186;2023-05-15T07:13:18;29.50;;;16.45;;
72301;SDS011;60235;52.234;5.186;2023-05-15T07:15:45;27.25;;;15.02;;
72301;SDS011;60235;52.234;5.186;2023-05-15T07:18:11;29.08;;;15.52;;
72301;SDS011;60235;52.234;5.186;2023-05-15T07:20:37;28.20;;;15.60;;
72301;SDS011;60235;52.234;5.186;2023-05-15T07:23:03;27.02;;;15.18;;
72301;SDS011;60235;52.234;5.186;2023-05-15T07:25:29;26.75;;;14.73;;
72301;SDS011;60235;52.234;5.186;2023-05-15T07:27:55;26.38;;;15.73;;
72301;SDS011;60235;52.234;5.186;2023-05-15T07:30:21;28.67;;;15.77;;
72301;SDS011;60235;52.234;5.186;2023-05-15T07:32:47;28.85;;;15.27;;
72301;SDS011;60235;52.234;5.186;2023-05-15T07:35:13;31.45;;;15.50;;
72301;SDS011;60235;52.234;5.186;2023-05-15T07:37:39;29.45;;;15.52;;
72301;SDS011;60235;52.234;5.186;2023-05-15T07:40:06;30.58;;;15.05;;
72301;SDS011;60235;52.234;5.186;2023-05-15T07:42:32;27.75;;;14.15;;
72301;SDS011;60235;52.234;5.186;2023-05-15T07:44:58;26.13;;;14.15;;
72301;SDS011;60235;52.234;5.186;2023-05-15T07:47:24;25.70;;;14.05;;
72301;SDS011;60235;52.234;5.186;2023-05-15T07:49:51;25.60;;;14.70;;
72301;SDS011;60235;52.234;5.186;2023-05-15T07:52:17;24.67;;;14.18;;
72301;SDS011;60235;52.234;5.186;2023-05-15T07:54:43;26.90;;;14.23;;
72301;SDS011;60235;52.234;5.186;2023-05-15T07:57:09;27.30;;;14.02;;
72301;SDS011;60235;52.234;5.186;2023-05-15T07:59:36;24.98;;;12.95;;
72301;SDS011;60235;52.234;5.186;2023-05-15T08:02:03;24.00;;;12.82;;
72301;SDS011;60235;52.234;5.186;2023-05-15T08:04:29;20.63;;;12.68;;
72301;SDS011;60235;52.234;5.186;2023-05-15T08:06:55;23.63;;;13.38;;
72301;SDS011;60235;52.234;5.186;2023-05-15T08:09:21;25.38;;;13.00;;
72301;SDS011;60235;52.234;5.186;2023-05-15T08:11:50;27.98;;;14.48;;
72301;SDS011;60235;52.234;5.186;2023-05-15T08:14:16;26.73;;;14.90;;
72301;SDS011;60235;52.234;5.186;2023-05-15T08:16:42;29.75;;;13.90;;
72301;SDS011;60235;52.234;5.186;2023-05-15T08:19:08;25.67;;;13.30;;
72301;SDS011;60235;52.234;5.186;2023-05-15T08:21:34;26.23;;;14.48;;
72301;SDS011;60235;52.234;5.186;2023-05-15T08:24:00;24.35;;;13.40;;
72301;SDS011;60235;52.234;5.186;2023-05-15T08:26:26;29.00;;;14.98;;
72301;SDS011;60235;52.234;5.186;2023-05-15T08:28:52;25.08;;;13.52;;
72301;SDS011;60235;52.234;5.186;2023-05-15T08:31:18;24.63;;;12.55;;
72301;SDS011;60235;52.234;5.186;2023-05-15T08:33:44;24.90;;;14.13;;
72301;SDS011;60235;52.234;5.186;2023-05-15T08:36:10;24.25;;;13.63;;
72301;SDS011;60235;52.234;5.186;2023-05-15T08:38:36;24.55;;;13.95;;
72301;SDS011;60235;52.234;5.186;2023-05-15T08:41:06;22.67;;;12.82;;
72301;SDS011;60235;52.234;5.186;2023-05-15T08:43:34;26.58;;;14.00;;
72301;SDS011;60235;52.234;5.186;2023-05-15T08:46:01;26.45;;;14.88;;
72301;SDS011;60235;52.234;5.186;2023-05-15T08:48:28;28.33;;;15.35;;
72301;SDS011;60235;52.234;5.186;2023-05-15T08:50:55;28.58;;;15.38;;
72301;SDS011;60235;52.234;5.186;2023-05-15T08:53:22;25.73;;;14.52;;
72301;SDS011;60235;52.234;5.186;2023-05-15T08:55:48;28.38;;;15.02;;
72301;SDS011;60235;52.234;5.186;2023-05-15T08:58:14;33.80;;;16.00;;
72301;SDS011;60235;52.234;5.186;2023-05-15T09:00:41;32.22;;;16.85;;
72301;SDS011;60235;52.234;5.186;2023-05-15T09:03:12;33.40;;;17.85;;
72301;SDS011;60235;52.234;5.186;2023-05-15T09:05:38;37.75;;;19.65;;
72301;SDS011;60235;52.234;5.186;2023-05-15T09:08:04;34.65;;;18.88;;
72301;SDS011;60235;52.234;5.186;2023-05-15T09:10:31;35.40;;;18.65;;
72301;SDS011;60235;52.234;5.186;2023-05-15T09:12:57;40.95;;;21.83;;
72301;SDS011;60235;52.234;5.186;2023-05-15T09:15:24;45.83;;;23.15;;
72301;SDS011;60235;52.234;5.186;2023-05-15T09:17:50;40.55;;;20.67;;
72301;SDS011;60235;52.234;5.186;2023-05-15T09:20:29;43.95;;;23.02;;
72301;SDS011;60235;52.234;5.186;2023-05-15T09:22:56;41.10;;;21.58;;
72301;SDS011;60235;52.234;5.186;2023-05-15T09:27:58;47.75;;;23.05;;
72301;SDS011;60235;52.234;5.186;2023-05-15T09:30:27;45.50;;;22.63;;
72301;SDS011;60235;52.234;5.186;2023-05-15T09:32:57;47.90;;;23.13;;
72301;SDS011;60235;52.234;5.186;2023-05-15T09:35:31;46.85;;;21.95;;
72301;SDS011;60235;52.234;5.186;2023-05-15T09:37:58;49.45;;;23.40;;
72301;SDS011;60235;52.234;5.186;2023-05-15T09:40:27;49.25;;;23.27;;
72301;SDS011;60235;52.234;5.186;2023-05-15T09:42:53;49.70;;;22.83;;
72301;SDS011;60235;52.234;5.186;2023-05-15T09:45:19;43.67;;;21.17;;
72301;SDS011;60235;52.234;5.186;2023-05-15T09:47:45;48.47;;;23.02;;
72301;SDS011;60235;52.234;5.186;2023-05-15T09:50:12;45.80;;;22.10;;
72301;SDS011;60235;52.234;5.186;2023-05-15T09:52:38;50.33;;;22.90;;
72301;SDS011;60235;52.234;5.186;2023-05-15T09:55:04;49.30;;;24.02;;
72301;SDS011;60235;52.234;5.186;2023-05-15T09:57:31;50.83;;;23.45;;
72301;SDS011;60235;52.234;5.186;2023-05-15T09:59:59;46.78;;;22.45;;
72301;SDS011;60235;52.234;5.186;2023-05-15T10:02:34;45.28;;;21.40;;
72301;SDS011;60235;52.234;5.186;2023-05-15T10:05:00;53.85;;;24.85;;
72301;SDS011;60235;52.234;5.186;2023-05-15T10:07:35;49.10;;;23.30;;
72301;SDS011;60235;52.234;5.186;2023-05-15T10:10:02;47.65;;;23.25;;
72301;SDS011;60235;52.234;5.186;2023-05-15T10:12:29;49.17;;;23.02;;
72301;SDS011;60235;52.234;5.186;2023-05-15T10:14:56;47.63;;;22.88;;
72301;SDS011;60235;52.234;5.186;2023-05-15T10:17:23;45.95;;;22.55;;
72301;SDS011;60235;52.234;5.186;2023-05-15T10:19:50;46.00;;;22.73;;
72301;SDS011;60235;52.234;5.186;2023-05-15T10:22:22;42.35;;;20.65;;
72301;SDS011;60235;52.234;5.186;2023-05-15T10:24:58;42.53;;;19.60;;
72301;SDS011;60235;52.234;5.186;2023-05-15T10:27:25;39.20;;;19.08;;
72301;SDS011;60235;52.234;5.186;2023-05-15T10:29:51;38.80;;;18.40;;
72301;SDS011;60235;52.234;5.186;2023-05-15T10:32:18;37.72;;;18.48;;
72301;SDS011;60235;52.234;5.186;2023-05-15T10:34:44;34.58;;;16.90;;
72301;SDS011;60235;52.234;5.186;2023-05-15T10:37:11;39.65;;;18.20;;
72301;SDS011;60235;52.234;5.186;2023-05-15T10:39:37;33.63;;;17.08;;
72301;SDS011;60235;52.234;5.186;2023-05-15T10:42:05;35.47;;;17.25;;
72301;SDS011;60235;52.234;5.186;2023-05-15T10:44:31;33.30;;;16.48;;
72301;SDS011;60235;52.234;5.186;2023-05-15T10:46:57;37.60;;;17.75;;
72301;SDS011;60235;52.234;5.186;2023-05-15T10:49:23;33.35;;;17.35;;
72301;SDS011;60235;52.234;5.186;2023-05-15T10:51:50;34.92;;;16.02;;
72301;SDS011;60235;52.234;5.186;2023-05-15T10:54:17;31.75;;;15.55;;
72301;SDS011;60235;52.234;5.186;2023-05-15T10:56:43;33.63;;;16.95;;
72301;SDS011;60235;52.234;5.186;2023-05-15T10:59:10;32.25;;;16.35;;
72301;SDS011;60235;52.234;5.186;2023-05-15T11:01:37;29.00;;;14.45;;
72301;SDS011;60235;52.234;5.186;2023-05-15T11:04:16;28.13;;;14.50;;
72301;SDS011;60235;52.234;5.186;2023-05-15T11:06:46;27.02;;;13.23;;
72301;SDS011;60235;52.234;5.186;2023-05-15T11:14:18;25.38;;;13.43;;
72301;SDS011;60235;52.234;5.186;2023-05-15T11:21:47;27.42;;;13.65;;
72301;SDS011;60235;52.234;5.186;2023-05-15T11:24:18;23.25;;;12.05;;
72301;SDS011;60235;52.234;5.186;2023-05-15T11:26:44;23.75;;;12.63;;
72301;SDS011;60235;52.234;5.186;2023-05-15T11:29:19;26.98;;;13.35;;
72301;SDS011;60235;52.234;5.186;2023-05-15T11:31:45;24.95;;;13.82;;
72301;SDS011;60235;52.234;5.186;2023-05-15T11:34:11;25.00;;;12.15;;
72301;SDS011;60235;52.234;5.186;2023-05-15T11:36:38;23.95;;;12.48;;
72301;SDS011;60235;52.234;5.186;2023-05-15T11:39:10;26.45;;;13.20;;
72301;SDS011;60235;52.234;5.186;2023-05-15T11:41:36;23.02;;;12.98;;
72301;SDS011;60235;52.234;5.186;2023-05-15T11:44:03;22.95;;;12.25;;
72301;SDS011;60235;52.234;5.186;2023-05-15T11:46:29;21.75;;;12.35;;
72301;SDS011;60235;52.234;5.186;2023-05-15T11:48:56;22.83;;;12.27;;
72301;SDS011;60235;52.234;5.186;2023-05-15T11:51:23;22.30;;;11.85;;
72301;SDS011;60235;52.234;5.186;2023-05-15T11:53:50;21.02;;;11.88;;
72301;SDS011;60235;52.234;5.186;2023-05-15T11:56:17;21.55;;;12.40;;
72301;SDS011;60235;52.234;5.186;2023-05-15T11:58:43;20.90;;;11.27;;
72301;SDS011;60235;52.234;5.186;2023-05-15T12:01:09;20.83;;;11.68;;
72301;SDS011;60235;52.234;5.186;2023-05-15T12:03:36;19.60;;;10.95;;
72301;SDS011;60235;52.234;5.186;2023-05-15T12:06:02;17.92;;;10.20;;
72301;SDS011;60235;52.234;5.186;2023-05-15T12:08:32;19.73;;;10.43;;
72301;SDS011;60235;52.234;5.186;2023-05-15T12:10:59;20.30;;;10.82;;
72301;SDS011;60235;52.234;5.186;2023-05-15T12:13:25;20.90;;;10.80;;
72301;SDS011;60235;52.234;5.186;2023-05-15T12:15:52;16.80;;;9.57;;
72301;SDS011;60235;52.234;5.186;2023-05-15T12:18:18;18.15;;;9.95;;
72301;SDS011;60235;52.234;5.186;2023-05-15T12:20:44;21.13;;;10.73;;
72301;SDS011;60235;52.234;5.186;2023-05-15T12:23:13;16.55;;;10.25;;
72301;SDS011;60235;52.234;5.186;2023-05-15T12:25:39;18.13;;;10.25;;
72301;SDS011;60235;52.234;5.186;2023-05-15T12:28:06;17.77;;;9.93;;
72301;SDS011;60235;52.234;5.186;2023-05-15T12:30:32;18.90;;;9.93;;
72301;SDS011;60235;52.234;5.186;2023-05-15T12:33:02;17.75;;;9.85;;
72301;SDS011;60235;52.234;5.186;2023-05-15T12:35:29;23.85;;;10.38;;
72301;SDS011;60235;52.234;5.186;2023-05-15T12:37:55;22.58;;;10.98;;
72301;SDS011;60235;52.234;5.186;2023-05-15T12:40:21;19.88;;;10.05;;
72301;SDS011;60235;52.234;5.186;2023-05-15T12:42:50;23.38;;;10.18;;
72301;SDS011;60235;52.234;5.186;2023-05-15T12:45:20;20.17;;;9.80;;
72301;SDS011;60235;52.234;5.186;2023-05-15T12:47:47;18.88;;;9.75;;
72301;SDS011;60235;52.234;5.186;2023-05-15T12:55:14;13.43;;;6.75;;
72301;SDS011;60235;52.234;5.186;2023-05-15T12:57:41;14.70;;;6.40;;
72301;SDS011;60235;52.234;5.186;2023-05-15T13:00:09;20.08;;;8.25;;
72301;SDS011;60235;52.234;5.186;2023-05-15T13:02:35;18.52;;;9.40;;
72301;SDS011;60235;52.234;5.186;2023-05-15T13:05:02;23.95;;;9.18;;
72301;SDS011;60235;52.234;5.186;2023-05-15T13:07:28;17.60;;;8.63;;
72301;SDS011;60235;52.234;5.186;2023-05-15T13:10:04;14.23;;;7.57;;
72301;SDS011;60235;52.234;5.186;2023-05-15T13:12:37;15.85;;;6.75;;
72301;SDS011;60235;52.234;5.186;2023-05-15T13:15:04;16.27;;;7.75;;
72301;SDS011;60235;52.234;5.186;2023-05-15T13:17:31;19.63;;;8.23;;
72301;SDS011;60235;52.234;5.186;2023-05-15T13:19:58;17.75;;;8.75;;
72301;SDS011;60235;52.234;5.186;2023-05-15T13:22:24;20.85;;;8.13;;
72301;SDS011;60235;52.234;5.186;2023-05-15T13:24:51;16.33;;;7.35;;
72301;SDS011;60235;52.234;5.186;2023-05-15T13:27:17;15.27;;;6.72;;
72301;SDS011;60235;52.234;5.186;2023-05-15T13:29:44;16.95;;;7.75;;
72301;SDS011;60235;52.234;5.186;2023-05-15T13:32:10;14.98;;;6.85;;
72301;SDS011;60235;52.234;5.186;2023-05-15T13:34:36;15.32;;;6.15;;
72301;SDS011;60235;52.234;5.186;2023-05-15T13:37:02;14.77;;;5.72;;
72301;SDS011;60235;52.234;5.186;2023-05-15T13:39:28;12.43;;;5.15;;
72301;SDS011;60235;52.234;5.186;2023-05-15T13:41:54;11.02;;;4.85;;
72301;SDS011;60235;52.234;5.186;2023-05-15T13:44:20;11.70;;;4.93;;
72301;SDS011;60235;52.234;5.186;2023-05-15T13:46:46;10.80;;;4.35;;
72301;SDS011;60235;52.234;5.186;2023-05-15T13:49:12;11.93;;;5.32;;
72301;SDS011;60235;52.234;5.186;2023-05-15T13:51:38;10.88;;;5.30;;
72301;SDS011;60235;52.234;5.186;2023-05-15T13:54:04;14.65;;;7.05;;
72301;SDS011;60235;52.234;5.186;2023-05-15T13:56:30;17.20;;;7.40;;
72301;SDS011;60235;52.234;5.186;2023-05-15T13:58:56;17.77;;;7.40;;
72301;SDS011;60235;52.234;5.186;2023-05-15T14:01:22;11.55;;;5.22;;
72301;SDS011;60235;52.234;5.186;2023-05-15T14:03:48;9.30;;;4.30;;
72301;SDS011;60235;52.234;5.186;2023-05-15T14:06:14;9.65;;;4.38;;
72301;SDS011;60235;52.234;5.186;2023-05-15T14:08:40;11.13;;;4.72;;
72301;SDS011;60235;52.234;5.186;2023-05-15T14:11:06;15.40;;;5.90;;
72301;SDS011;60235;52.234;5.186;2023-05-15T14:13:32;12.35;;;7.05;;
72301;SDS011;60235;52.234;5.186;2023-05-15T14:15:58;15.38;;;7.22;;
72301;SDS011;60235;52.234;5.186;2023-05-15T14:18:24;13.40;;;6.97;;
72301;SDS011;60235;52.234;5.186;2023-05-15T14:20:50;21.98;;;7.65;;
72301;SDS011;60235;52.234;5.186;2023-05-15T14:23:17;19.38;;;7.20;;
72301;SDS011;60235;52.234;5.186;2023-05-15T14:25:43;18.50;;;7.50;;
72301;SDS011;60235;52.234;5.186;2023-05-15T14:28:09;21.17;;;7.68;;
72301;SDS011;60235;52.234;5.186;2023-05-15T14:30:36;14.23;;;7.43;;
72301;SDS011;60235;52.234;5.186;2023-05-15T14:33:02;16.02;;;6.88;;
72301;SDS011;60235;52.234;5.186;2023-05-15T14:35:28;14.88;;;6.65;;
72301;SDS011;60235;52.234;5.186;2023-05-15T14:37:54;17.17;;;7.38;;
72301;SDS011;60235;52.234;5.186;2023-05-15T14:40:21;15.30;;;7.13;;
72301;SDS011;60235;52.234;5.186;2023-05-15T14:42:47;13.15;;;6.43;;
72301;SDS011;60235;52.234;5.186;2023-05-15T14:45:13;17.30;;;7.65;;